createdAt,value
2018-07-23T00:07:33.972Z,74.41
2018-07-23T00:22:38.049Z,74.80
2018-07-23T00:37:42.024Z,75.74
2018-07-23T00:52:46.119Z,79.53
2018-07-23T01:07:50.087Z,81.74
2018-07-23T01:22:53.955Z,83.81
2018-07-23T01:37:57.967Z,81.77
2018-07-23T01:53:02.178Z,83.07
2018-07-23T02:08:06.171Z,83.06
2018-07-23T02:23:10.379Z,88.27
2018-07-23T02:38:14.198Z,89.11
2018-07-23T02:53:18.043Z,89.98
2018-07-23T03:08:21.936Z,88.06
2018-07-23T03:23:25.852Z,86.83
2018-07-23T03:38:29.716Z,83.71
2018-07-23T03:53:33.923Z,78.13
2018-07-23T04:08:38.272Z,72.32
2018-07-23T04:23:42.123Z,66.29
2018-07-23T04:38:46.101Z,59.99
2018-07-23T04:53:49.960Z,54.02
2018-07-23T05:08:53.921Z,48.83
2018-07-23T05:23:57.851Z,44.68
2018-07-23T05:39:01.866Z,42.66
2018-07-23T05:54:06.591Z,39.61
2018-07-23T06:09:10.970Z,35.65
2018-07-23T06:24:15.095Z,32.58
2018-07-23T06:39:19.171Z,31.75
2018-07-23T06:54:23.052Z,34.33
2018-07-23T07:09:27.537Z,32.46
2018-07-23T07:24:31.362Z,31.37
2018-07-23T07:39:35.189Z,30.03
2018-07-23T07:54:39.256Z,29.10
2018-07-23T08:09:43.267Z,27.80
2018-07-23T08:24:47.143Z,27.91
2018-07-23T08:39:51.209Z,27.86
2018-07-23T08:54:55.103Z,26.80
2018-07-23T09:09:59.349Z,26.34
2018-07-23T09:25:04.251Z,28.54
2018-07-23T09:40:08.649Z,29.11
2018-07-23T09:55:12.649Z,33.07
2018-07-23T10:10:16.958Z,66.95
2018-07-23T10:25:21.054Z,72.82
2018-07-23T10:40:25.304Z,69.66
2018-07-23T10:55:29.535Z,71.37
2018-07-23T11:10:33.540Z,78.11
2018-07-23T11:25:39.635Z,80.83
2018-07-23T11:40:41.705Z,80.82
2018-07-23T11:55:45.881Z,79.39
2018-07-23T12:10:49.953Z,77.16
2018-07-23T12:25:53.921Z,75.65
2018-07-23T12:40:57.895Z,67.03
2018-07-23T12:56:01.763Z,48.54
2018-07-23T13:11:05.716Z,47.88
2018-07-23T13:26:09.976Z,65.86
2018-07-23T13:41:14.272Z,79.45
2018-07-23T13:56:18.393Z,70.08
2018-07-23T14:11:22.672Z,81.85
2018-07-23T14:26:27.075Z,78.28
2018-07-23T14:41:31.022Z,82.73
2018-07-23T14:56:34.990Z,81.03
2018-07-23T15:11:38.971Z,81.80
2018-07-23T15:26:43.654Z,83.31
2018-07-23T15:41:48.049Z,85.89
2018-07-23T15:56:51.967Z,82.64
2018-07-23T16:11:55.937Z,81.15
2018-07-23T16:27:00.098Z,81.87
2018-07-23T16:42:04.137Z,89.32
2018-07-23T16:57:08.166Z,85.50
2018-07-23T17:12:12.450Z,85.06
2018-07-23T17:27:16.346Z,86.58
2018-07-23T17:42:20.272Z,87.97
2018-07-23T17:57:24.331Z,90.56
2018-07-23T18:12:28.292Z,92.63
2018-07-23T18:27:32.513Z,96.92
2018-07-23T18:42:36.608Z,96.54
2018-07-23T18:57:40.819Z,94.63
2018-07-23T19:12:44.865Z,97.76
2018-07-23T19:27:49.172Z,98.03
2018-07-23T19:42:53.113Z,96.38
2018-07-23T19:57:56.549Z,98.06
2018-07-23T20:13:00.849Z,98.47
2018-07-23T20:28:04.819Z,99.26
2018-07-23T20:43:08.773Z,100.00
2018-07-23T20:58:12.929Z,98.89
2018-07-23T21:13:17.353Z,98.25
2018-07-23T21:28:21.468Z,97.23
2018-07-23T21:43:25.751Z,97.56
2018-07-23T21:58:29.729Z,98.08
2018-07-23T22:13:33.757Z,98.00
2018-07-23T22:28:37.776Z,97.57
2018-07-23T22:43:41.883Z,97.47
2018-07-23T22:58:45.744Z,98.55
2018-07-23T23:13:49.994Z,96.62
2018-07-23T23:28:53.847Z,96.83
2018-07-23T23:43:58.073Z,96.30
2018-07-23T23:59:02.127Z,96.44
